Plan B — ZGCC2 — position and weather

sailwx.info

Track history (hours):
 
Tides and Currents Weather Stations Pressure Air Temp Water Temp Dewpoint Dewpoint Depression Visibility Wind Speed Wind Dir Waves Ship Positions

Plan B

Last reported at 2014-Sep-28 13:10 UTC. Time now 2014-Oct-02 02:36 UTC.
Position N 43°49' E 007°47'.

Length 73 m; draft 3.6 m.

Type: Pleasure craft. MMSI: 319618000.

Date/timePositionNaut miles runAvg speedWind from/ knotsBaromVisibWave heightAir tempDewpointWater temp
2014-Sep-28 13:10N 43°49' E 007°47'0 0.0
2014-Sep-28 01:28N 43°49' E 007°47'0 0.0
2014-Sep-28 00:04N 43°49' E 007°47'0 0.0
2014-Sep-26 18:16N 43°49' E 007°47'0 0.0
2014-Sep-26 17:13N 43°49' E 007°47'0 0.0
2014-Sep-26 16:31N 43°49' E 007°47'13 1.4
2014-Sep-26 07:18N 43°43' E 007°32'1115.1
2014-Sep-26 06:33N 43°38' E 007°17'8 6.4
2014-Sep-26 05:22N 43°35' E 007°08'0 0.0
2014-Sep-26 04:28N 43°35' E 007°08'0 0.0
2014-Sep-26 03:28N 43°35' E 007°08'0 0.0
2014-Sep-26 02:28N 43°35' E 007°08'0 0.0
2014-Sep-26 01:28N 43°35' E 007°08'0 0.0
2014-Sep-26 00:28N 43°35' E 007°08'0 0.0
2014-Sep-25 23:28N 43°35' E 007°08'0 0.0
2014-Sep-25 22:22N 43°35' E 007°08'0 0.0
2014-Sep-25 21:28N 43°35' E 007°08'0 0.0
2014-Sep-25 20:28N 43°35' E 007°08'0 0.0
2014-Sep-25 19:28N 43°35' E 007°08'0 0.0
2014-Sep-25 18:22N 43°35' E 007°08'0 0.0
2014-Sep-25 17:28N 43°35' E 007°08'0 0.0
2014-Sep-25 16:28N 43°35' E 007°08'0 0.0
2014-Sep-25 15:22N 43°35' E 007°08'0 0.0
2014-Sep-25 14:28N 43°35' E 007°08'0 0.0
2014-Sep-25 13:28N 43°35' E 007°08'0 0.0
2014-Sep-25 12:28N 43°35' E 007°08'0 0.0
2014-Sep-25 11:22N 43°35' E 007°08'0 0.0
2014-Sep-25 10:28N 43°35' E 007°08'0 0.0
2014-Sep-25 09:28N 43°35' E 007°08'0 0.0
2014-Sep-25 08:28N 43°35' E 007°08'0 0.0
2014-Sep-25 07:22N 43°35' E 007°08'0 0.0
2014-Sep-25 06:28N 43°35' E 007°08'0 0.0
2014-Sep-25 05:28N 43°35' E 007°08'0 0.0
2014-Sep-25 04:28N 43°35' E 007°08'0 0.0
2014-Sep-25 03:28N 43°35' E 007°08'0 0.0
2014-Sep-25 02:28N 43°35' E 007°08'0 0.0
2014-Sep-25 01:28N 43°35' E 007°08'0 0.0
2014-Sep-25 00:28N 43°35' E 007°08'0 0.0
2014-Sep-24 23:28N 43°35' E 007°08'0 0.0
2014-Sep-24 22:28N 43°35' E 007°08'0 0.0
2014-Sep-24 21:22N 43°35' E 007°08'0 0.0
2014-Sep-24 20:28N 43°35' E 007°08'0 0.0
2014-Sep-24 19:28N 43°35' E 007°08'0 0.0
2014-Sep-24 18:28N 43°35' E 007°08'0 0.0
2014-Sep-24 17:22N 43°35' E 007°08'0 0.0
2014-Sep-24 16:28N 43°35' E 007°08'0 0.0
2014-Sep-24 15:22N 43°35' E 007°08'0 0.0
2014-Sep-24 14:22N 43°35' E 007°08'0 0.0
2014-Sep-24 13:28N 43°35' E 007°08'0 0.0
2014-Sep-24 12:28N 43°35' E 007°08'0 0.0
2014-Sep-24 11:28N 43°35' E 007°08'0 0.0
2014-Sep-24 10:22N 43°35' E 007°08'0 0.0
2014-Sep-24 09:28N 43°35' E 007°08'0 0.0
2014-Sep-24 08:28N 43°35' E 007°08'0 0.0
2014-Sep-24 07:33N 43°35' E 007°08'6 6.0
2014-Sep-24 06:34N 43°39' E 007°15'5 4.5
2014-Sep-24 05:33N 43°42' E 007°19'0 0.0
2014-Sep-24 04:33N 43°42' E 007°19'0 0.0
2014-Sep-24 03:33N 43°42' E 007°19'0 0.0
2014-Sep-24 02:33N 43°42' E 007°19'0 0.0
2014-Sep-24 01:33N 43°42' E 007°19'0 0.0
2014-Sep-24 00:33N 43°42' E 007°19'0 0.0
2014-Sep-23 23:33N 43°42' E 007°19'0 0.0
2014-Sep-23 22:33N 43°42' E 007°19'0 0.0
2014-Sep-23 21:33N 43°42' E 007°19'0 0.0
2014-Sep-23 20:33N 43°42' E 007°19'0 0.0
2014-Sep-23 19:33N 43°42' E 007°19'0 0.0
2014-Sep-23 18:33N 43°42' E 007°19'0 0.0
2014-Sep-23 17:33N 43°42' E 007°19'0 0.0
2014-Sep-23 16:33N 43°42' E 007°19'0 0.0
2014-Sep-23 15:33N 43°42' E 007°19'0 0.0
2014-Sep-23 14:33N 43°42' E 007°19'0 0.0
2014-Sep-23 13:33N 43°42' E 007°19'0 0.0
2014-Sep-23 12:33N 43°42' E 007°19'0 0.0
2014-Sep-23 11:33N 43°42' E 007°19'6 5.8
2014-Sep-23 10:33N 43°40' E 007°27'5016.0
2014-Sep-23 07:26N 43°24' E 008°33'1816.0
2014-Sep-23 06:20N 43°19' E 008°56'1215.9
2014-Sep-23 05:33N 43°15' E 009°12'1615.2
2014-Sep-23 04:31N 43°06' E 009°30'13 0.3
2014-Sep-21 04:23N 42°55' E 009°37'1314.7
2014-Sep-21 03:28N 43°08' E 009°35'1314.5
2014-Sep-21 02:33N 43°21' E 009°31'1514.8
2014-Sep-21 01:33N 43°35' E 009°27'1514.8
2014-Sep-21 00:33N 43°50' E 009°22'1514.8
2014-Sep-20 23:34N 44°04' E 009°18'1514.5
2014-Sep-20 22:33N 44°18' E 009°13'0 0.0
2014-Sep-20 21:33N 44°18' E 009°13'0 0.0
2014-Sep-20 20:33N 44°18' E 009°13'0 0.0
2014-Sep-20 19:33N 44°18' E 009°13'0 0.0
2014-Sep-20 18:27N 44°18' E 009°13'0 0.0
2014-Sep-20 17:33N 44°18' E 009°13'0 0.0
2014-Sep-20 16:30N 44°18' E 009°13'0 0.0
2014-Sep-20 15:27N 44°18' E 009°13'0 0.0
2014-Sep-20 14:33N 44°18' E 009°13'0 0.0
2014-Sep-20 13:33N 44°18' E 009°13'0 0.0
2014-Sep-20 12:33N 44°18' E 009°13'0 0.0
2014-Sep-20 11:33N 44°18' E 009°13'0 0.0
2014-Sep-20 10:30N 44°18' E 009°13'0 0.0
2014-Sep-20 09:30N 44°18' E 009°13'0 0.0
2014-Sep-20 08:33N 44°18' E 009°13'0 0.0
2014-Sep-20 07:21N 44°18' E 009°13'3 1.4
2014-Sep-20 05:33N 44°16' E 009°11'1212.3
2014-Sep-20 04:33N 44°11' E 008°56'1212.1
2014-Sep-20 03:33N 44°05' E 008°41'1211.9
2014-Sep-20 02:33N 43°59' E 008°26'5011.9
2014-Sep-19 22:22N 43°40' E 007°22'3 1.4
2014-Sep-19 20:32N 43°42' E 007°19'0 0.0
2014-Sep-19 19:32N 43°42' E 007°19'0 0.0
2014-Sep-19 18:32N 43°42' E 007°19'0 0.0
2014-Sep-19 17:30N 43°42' E 007°19'0 0.0
2014-Sep-19 16:33N 43°42' E 007°19'0 0.0
2014-Sep-19 15:33N 43°42' E 007°19'0 0.0
2014-Sep-19 14:33N 43°42' E 007°19'0 0.0
2014-Sep-19 13:33N 43°42' E 007°19'0 0.0
2014-Sep-19 12:33N 43°42' E 007°19'0 0.0
2014-Sep-19 11:33N 43°42' E 007°19'0 0.0
2014-Sep-19 10:33N 43°42' E 007°19'0 0.0
2014-Sep-19 09:33N 43°42' E 007°19'0 0.0
2014-Sep-19 08:33N 43°42' E 007°19'0 0.0
2014-Sep-19 07:33N 43°42' E 007°19'0 0.0
2014-Sep-19 06:32N 43°42' E 007°19'0 0.0
2014-Sep-19 05:31N 43°42' E 007°19'0 0.0
2014-Sep-19 04:33N 43°42' E 007°19'0 0.0
2014-Sep-19 03:33N 43°42' E 007°19'0 0.0
2014-Sep-19 02:33N 43°42' E 007°19'0 0.0
2014-Sep-19 01:32N 43°42' E 007°19'0 0.0
2014-Sep-19 00:26N 43°42' E 007°19'0 0.0
2014-Sep-18 23:29N 43°42' E 007°19'2 2.1
2014-Sep-18 22:33N 43°40' E 007°18'1414.0
2014-Sep-18 21:33N 43°30' E 007°05'4 3.3
2014-Sep-18 20:26N 43°32' E 007°01'0 0.0
2014-Sep-18 19:26N 43°32' E 007°01'0 0.0
2014-Sep-18 18:14N 43°32' E 007°01'0 0.0
2014-Sep-18 17:32N 43°32' E 007°01'0 0.0
2014-Sep-18 16:32N 43°32' E 007°01'0 0.0
2014-Sep-18 15:32N 43°32' E 007°01'0 0.0
2014-Sep-18 14:20N 43°32' E 007°01'0 0.0
2014-Sep-18 13:26N 43°32' E 007°01'  
Track history (hours):
 
Tides and Currents Weather Stations Pressure Air Temp Water Temp Dewpoint Dewpoint Depression Visibility Wind Speed Wind Dir Waves Ship Positions

Plan B

Last reported at 2014-Sep-28 13:10 UTC. Time now 2014-Oct-02 02:36 UTC.
Position N 43°49' E 007°47'.

Length 73 m; draft 3.6 m.

Type: Pleasure craft. MMSI: 319618000.

Date/timePositionNaut miles runAvg speedWind from/ knotsBaromVisibWave heightAir tempDewpointWater temp
2014-Sep-28 13:10N 43°49' E 007°47'0 0.0
2014-Sep-28 01:28N 43°49' E 007°47'0 0.0
2014-Sep-28 00:04N 43°49' E 007°47'0 0.0
2014-Sep-26 18:16N 43°49' E 007°47'0 0.0
2014-Sep-26 17:13N 43°49' E 007°47'0 0.0
2014-Sep-26 16:31N 43°49' E 007°47'13 1.4
2014-Sep-26 07:18N 43°43' E 007°32'1115.1
2014-Sep-26 06:33N 43°38' E 007°17'8 6.4
2014-Sep-26 05:22N 43°35' E 007°08'0 0.0
2014-Sep-26 04:28N 43°35' E 007°08'0 0.0
2014-Sep-26 03:28N 43°35' E 007°08'0 0.0
2014-Sep-26 02:28N 43°35' E 007°08'0 0.0
2014-Sep-26 01:28N 43°35' E 007°08'0 0.0
2014-Sep-26 00:28N 43°35' E 007°08'0 0.0
2014-Sep-25 23:28N 43°35' E 007°08'0 0.0
2014-Sep-25 22:22N 43°35' E 007°08'0 0.0
2014-Sep-25 21:28N 43°35' E 007°08'0 0.0
2014-Sep-25 20:28N 43°35' E 007°08'0 0.0
2014-Sep-25 19:28N 43°35' E 007°08'0 0.0
2014-Sep-25 18:22N 43°35' E 007°08'0 0.0
2014-Sep-25 17:28N 43°35' E 007°08'0 0.0
2014-Sep-25 16:28N 43°35' E 007°08'0 0.0
2014-Sep-25 15:22N 43°35' E 007°08'0 0.0
2014-Sep-25 14:28N 43°35' E 007°08'0 0.0
2014-Sep-25 13:28N 43°35' E 007°08'0 0.0
2014-Sep-25 12:28N 43°35' E 007°08'0 0.0
2014-Sep-25 11:22N 43°35' E 007°08'0 0.0
2014-Sep-25 10:28N 43°35' E 007°08'0 0.0
2014-Sep-25 09:28N 43°35' E 007°08'0 0.0
2014-Sep-25 08:28N 43°35' E 007°08'0 0.0
2014-Sep-25 07:22N 43°35' E 007°08'0 0.0
2014-Sep-25 06:28N 43°35' E 007°08'0 0.0
2014-Sep-25 05:28N 43°35' E 007°08'0 0.0
2014-Sep-25 04:28N 43°35' E 007°08'0 0.0
2014-Sep-25 03:28N 43°35' E 007°08'0 0.0
2014-Sep-25 02:28N 43°35' E 007°08'0 0.0
2014-Sep-25 01:28N 43°35' E 007°08'0 0.0
2014-Sep-25 00:28N 43°35' E 007°08'0 0.0
2014-Sep-24 23:28N 43°35' E 007°08'0 0.0
2014-Sep-24 22:28N 43°35' E 007°08'0 0.0
2014-Sep-24 21:22N 43°35' E 007°08'0 0.0
2014-Sep-24 20:28N 43°35' E 007°08'0 0.0
2014-Sep-24 19:28N 43°35' E 007°08'0 0.0
2014-Sep-24 18:28N 43°35' E 007°08'0 0.0
2014-Sep-24 17:22N 43°35' E 007°08'0 0.0
2014-Sep-24 16:28N 43°35' E 007°08'0 0.0
2014-Sep-24 15:22N 43°35' E 007°08'0 0.0
2014-Sep-24 14:22N 43°35' E 007°08'0 0.0
2014-Sep-24 13:28N 43°35' E 007°08'0 0.0
2014-Sep-24 12:28N 43°35' E 007°08'0 0.0
2014-Sep-24 11:28N 43°35' E 007°08'0 0.0
2014-Sep-24 10:22N 43°35' E 007°08'0 0.0
2014-Sep-24 09:28N 43°35' E 007°08'0 0.0
2014-Sep-24 08:28N 43°35' E 007°08'0 0.0
2014-Sep-24 07:33N 43°35' E 007°08'6 6.0
2014-Sep-24 06:34N 43°39' E 007°15'5 4.5
2014-Sep-24 05:33N 43°42' E 007°19'0 0.0
2014-Sep-24 04:33N 43°42' E 007°19'0 0.0
2014-Sep-24 03:33N 43°42' E 007°19'0 0.0
2014-Sep-24 02:33N 43°42' E 007°19'0 0.0
2014-Sep-24 01:33N 43°42' E 007°19'0 0.0
2014-Sep-24 00:33N 43°42' E 007°19'0 0.0
2014-Sep-23 23:33N 43°42' E 007°19'0 0.0
2014-Sep-23 22:33N 43°42' E 007°19'0 0.0
2014-Sep-23 21:33N 43°42' E 007°19'0 0.0
2014-Sep-23 20:33N 43°42' E 007°19'0 0.0
2014-Sep-23 19:33N 43°42' E 007°19'0 0.0
2014-Sep-23 18:33N 43°42' E 007°19'0 0.0
2014-Sep-23 17:33N 43°42' E 007°19'0 0.0
2014-Sep-23 16:33N 43°42' E 007°19'0 0.0
2014-Sep-23 15:33N 43°42' E 007°19'0 0.0
2014-Sep-23 14:33N 43°42' E 007°19'0 0.0
2014-Sep-23 13:33N 43°42' E 007°19'0 0.0
2014-Sep-23 12:33N 43°42' E 007°19'0 0.0
2014-Sep-23 11:33N 43°42' E 007°19'6 5.8
2014-Sep-23 10:33N 43°40' E 007°27'5016.0
2014-Sep-23 07:26N 43°24' E 008°33'1816.0
2014-Sep-23 06:20N 43°19' E 008°56'1215.9
2014-Sep-23 05:33N 43°15' E 009°12'1615.2
2014-Sep-23 04:31N 43°06' E 009°30'13 0.3
2014-Sep-21 04:23N 42°55' E 009°37'1314.7
2014-Sep-21 03:28N 43°08' E 009°35'1314.5
2014-Sep-21 02:33N 43°21' E 009°31'1514.8
2014-Sep-21 01:33N 43°35' E 009°27'1514.8
2014-Sep-21 00:33N 43°50' E 009°22'1514.8
2014-Sep-20 23:34N 44°04' E 009°18'1514.5
2014-Sep-20 22:33N 44°18' E 009°13'0 0.0
2014-Sep-20 21:33N 44°18' E 009°13'0 0.0
2014-Sep-20 20:33N 44°18' E 009°13'0 0.0
2014-Sep-20 19:33N 44°18' E 009°13'0 0.0
2014-Sep-20 18:27N 44°18' E 009°13'0 0.0
2014-Sep-20 17:33N 44°18' E 009°13'0 0.0
2014-Sep-20 16:30N 44°18' E 009°13'0 0.0
2014-Sep-20 15:27N 44°18' E 009°13'0 0.0
2014-Sep-20 14:33N 44°18' E 009°13'0 0.0
2014-Sep-20 13:33N 44°18' E 009°13'0 0.0
2014-Sep-20 12:33N 44°18' E 009°13'0 0.0
2014-Sep-20 11:33N 44°18' E 009°13'0 0.0
2014-Sep-20 10:30N 44°18' E 009°13'0 0.0
2014-Sep-20 09:30N 44°18' E 009°13'0 0.0
2014-Sep-20 08:33N 44°18' E 009°13'0 0.0
2014-Sep-20 07:21N 44°18' E 009°13'3 1.4
2014-Sep-20 05:33N 44°16' E 009°11'1212.3
2014-Sep-20 04:33N 44°11' E 008°56'1212.1
2014-Sep-20 03:33N 44°05' E 008°41'1211.9
2014-Sep-20 02:33N 43°59' E 008°26'5011.9
2014-Sep-19 22:22N 43°40' E 007°22'3 1.4
2014-Sep-19 20:32N 43°42' E 007°19'0 0.0
2014-Sep-19 19:32N 43°42' E 007°19'0 0.0
2014-Sep-19 18:32N 43°42' E 007°19'0 0.0
2014-Sep-19 17:30N 43°42' E 007°19'0 0.0
2014-Sep-19 16:33N 43°42' E 007°19'0 0.0
2014-Sep-19 15:33N 43°42' E 007°19'0 0.0
2014-Sep-19 14:33N 43°42' E 007°19'0 0.0
2014-Sep-19 13:33N 43°42' E 007°19'0 0.0
2014-Sep-19 12:33N 43°42' E 007°19'0 0.0
2014-Sep-19 11:33N 43°42' E 007°19'0 0.0
2014-Sep-19 10:33N 43°42' E 007°19'0 0.0
2014-Sep-19 09:33N 43°42' E 007°19'0 0.0
2014-Sep-19 08:33N 43°42' E 007°19'0 0.0
2014-Sep-19 07:33N 43°42' E 007°19'0 0.0
2014-Sep-19 06:32N 43°42' E 007°19'0 0.0
2014-Sep-19 05:31N 43°42' E 007°19'0 0.0
2014-Sep-19 04:33N 43°42' E 007°19'0 0.0
2014-Sep-19 03:33N 43°42' E 007°19'0 0.0
2014-Sep-19 02:33N 43°42' E 007°19'0 0.0
2014-Sep-19 01:32N 43°42' E 007°19'0 0.0
2014-Sep-19 00:26N 43°42' E 007°19'0 0.0
2014-Sep-18 23:29N 43°42' E 007°19'2 2.1
2014-Sep-18 22:33N 43°40' E 007°18'1414.0
2014-Sep-18 21:33N 43°30' E 007°05'4 3.3
2014-Sep-18 20:26N 43°32' E 007°01'0 0.0
2014-Sep-18 19:26N 43°32' E 007°01'0 0.0
2014-Sep-18 18:14N 43°32' E 007°01'0 0.0
2014-Sep-18 17:32N 43°32' E 007°01'0 0.0
2014-Sep-18 16:32N 43°32' E 007°01'0 0.0
2014-Sep-18 15:32N 43°32' E 007°01'0 0.0
2014-Sep-18 14:20N 43°32' E 007°01'0 0.0
2014-Sep-18 13:26N 43°32' E 007°01'  

Dump ship's entire track history